All Stations Radar Satellite Rainfall Station Map Enhanced Site
Observations: Wind Gusts Humidity Temperature    
Forecasts: Wind Gusts Humidity Temperature    

Mt. Soledad (578) Station Data (Station Map)

Red Flag Warning: No
Fire Weather Zone: 243
SDGE Region: Beach Cities
Lat/Lon: 32.814/-117.241

Observations

Time (PST)Wind Spd/GustTempRHFuel Moisture
11/21 11:50amW 4 G 865°64%12.32%
11/21 11:40amWNW 5 G 1065°66%12.36%
11/21 11:30amNW 5 G 964°68%12.37%
11/21 11:20amNW 5 G 1064°68%12.38%
11/21 11:10amNW 5 G 964°68%12.4%
11/21 11:00amNW 5 G 1064°67%12.65%
11/21 10:50amNNW 6 G 1165°67%12.79%
11/21 10:40amNW 5 G 1264°68%12.95%
11/21 10:30amWNW 5 G 1065°67%13.09%
11/21 10:20amNW 4 G 864°69%13.33%
11/21 10:10amNW 5 G 964°70%13.39%
11/21 10:00amNW 5 G 864°69%13.51%
11/21 9:50amNW 4 G 864°69%13.75%
11/21 9:40amWNW 4 G 864°71%13.88%
11/21 9:30amNW 4 G 863°72%13.93%
11/21 9:20amNNW 3 G 664°73%14.11%
11/21 9:10amNNW 5 G 863°74%14.29%
11/21 9:00amNNW 5 G 1063°73%14.22%
11/21 8:50amNNW 4 G 863°72%14.49%
11/21 8:40amNNW 4 G 863°73%14.58%
11/21 8:30amNNW 2 G 763°76%14.92%
11/21 8:20amNNE 2 G 462°78%15.18%
11/21 8:10amNNE 3 G 862°76%15.39%
11/21 8:00amN 5 G 962°75%15.69%
11/21 7:50amNNW 3 G 661°78%15.98%
11/21 7:40amN 3 G 561°79%16.07%
11/21 7:30amNNW 4 G 961°77%16.14%
11/21 7:20amNW 4 G 761°77%16.28%
11/21 7:10amNW 4 G 861°77%16.55%
11/21 7:00amWNW 4 G 960°78%16.65%
11/21 6:50amWNW 5 G 1060°77%16.77%
11/21 6:40amWNW 6 G 1160°75%16.94%
11/21 6:30amWNW 6 G 1261°75%17.16%
11/21 6:20amWNW 6 G 1261°77%17.46%
11/21 6:10amWNW 6 G 1261°78%17.73%
11/21 6:00amWNW 6 G 1361°78%18%
11/21 5:50amWNW 6 G 1561°79%18.3%
11/21 5:40amW 6 G 1460°82%18.56%
11/21 5:30amWNW 6 G 1460°83%18.79%
11/21 5:20amWNW 6 G 1460°84%18.9%
11/21 5:10amWNW 8 G 1660°85%19.19%
11/21 5:00amW 5 G 1661°79%15.62%
11/21 4:50amW 4 G 961°78%15.48%
11/21 4:40amWNW 6 G 1461°76%15.53%
11/21 4:30amW 5 G 1161°78%15.64%
11/21 4:20amW 4 G 960°78%15.7%
11/21 4:10amW 4 G 1261°78%15.74%
11/21 4:00amW 6 G 1161°79%15.81%
11/21 3:50amW 5 G 1161°80%15.95%
11/21 3:40amW 5 G 1461°80%16.06%
11/21 3:30amW 5 G 1161°79%16.17%
11/21 3:20amW 4 G 1161°79%16.34%
11/21 3:10amW 5 G 1461°80%16.52%
11/21 3:00amW 5 G 1261°80%16.74%
11/21 2:50amW 5 G 1061°81%16.96%
11/21 2:40amW 4 G 1161°81%17.17%
11/21 2:30amW 5 G 1160°83%17.45%
11/21 2:20amW 4 G 1160°86%17.66%
11/21 2:10amSSW 3 G 959°89%17.75%
11/21 2:00amS 3 G 559°88%17.74%
11/21 1:50amSSW 2 G 560°88%16.45%
11/21 1:40amWSW 2 G 660°86%14.59%
11/21 1:30amSW 3 G 761°81%13.55%
11/21 1:20amSW 3 G 861°83%13.11%
11/21 1:10amSW 3 G 861°84%13.06%
11/21 1:00amSW 3 G 961°83%13.03%
11/21 12:50amSW 1 G 261°80%12.96%
11/21 12:40amSW 0 G 161°80%12.91%
11/21 12:30amNW 0 G 161°80%12.9%
11/21 12:20amN 0 G 061°80%12.83%
11/21 12:10amSW 0 G 161°80%12.84%
11/21 12:00amSW 0 G 161°80%12.82%
11/20 11:50pmNNE 0 G 160°81%12.77%
11/20 11:40pmN 0 G 160°80%12.73%
11/20 11:30pmENE 0 G 161°79%12.67%
11/20 11:20pmENE 0 G 161°79%12.65%
11/20 11:10pmWSW 0 G 261°80%12.62%
11/20 11:00pmW 2 G 561°80%12.62%
11/20 10:50pmW 3 G 762°78%12.58%
11/20 10:40pmWNW 3 G 662°77%12.54%
11/20 10:30pmW 2 G 462°77%12.52%
11/20 10:20pmW 2 G 662°76%12.49%
11/20 10:10pmW 2 G 562°75%12.47%
11/20 10:00pmW 2 G 562°73%12.46%
11/20 9:50pmW 2 G 562°73%12.47%
11/20 9:40pmW 2 G 562°75%12.5%
11/20 9:30pmW 1 G 462°76%12.51%
11/20 9:20pmW 1 G 262°77%12.52%
11/20 9:10pmW 1 G 462°77%12.49%
11/20 9:00pmW 2 G 461°77%12.49%
11/20 8:50pmWNW 2 G 661°78%12.48%
11/20 8:40pmWNW 2 G 361°78%12.46%
11/20 8:30pmNW 1 G 261°78%12.36%
11/20 8:20pmWNW 0 G 161°78%12.28%
11/20 8:10pmNW 1 G 261°77%12.26%
11/20 8:00pmNW 1 G 261°77%12.26%
11/20 7:50pmNW 1 G 461°76%12.18%
11/20 7:40pmWNW 2 G 562°77%12.2%
11/20 7:30pmWNW 3 G 562°77%12.18%
11/20 7:20pmWNW 3 G 862°77%12.17%
11/20 7:10pmWNW 4 G 962°77%12.15%
11/20 7:00pmWNW 5 G 862°77%12.14%
11/20 6:50pmWNW 4 G 962°78%12.12%
11/20 6:40pmWNW 4 G 1062°78%12.11%
11/20 6:30pmWNW 4 G 1062°78%12.1%
11/20 6:20pmWNW 5 G 1062°78%12.07%
11/20 6:10pmWNW 4 G 962°79%12.01%
11/20 6:00pmWNW 5 G 962°80%11.98%
11/20 5:50pmWNW 4 G 862°79%11.94%
11/20 5:40pmWNW 3 G 863°80%11.92%
11/20 5:30pmWNW 4 G 863°81%11.9%
11/20 5:20pmWNW 5 G 1063°82%11.88%
11/20 5:10pmWNW 5 G 1063°83%11.83%
11/20 5:00pmNW 5 G 963°82%11.76%
11/20 4:50pmWNW 5 G 963°82%11.7%
11/20 4:40pmWNW 5 G 1063°82%11.62%
11/20 4:30pmWNW 6 G 1163°82%11.54%
11/20 4:20pmWNW 8 G 1563°82%11.48%
11/20 4:10pmWNW 7 G 1564°82%11.42%
11/20 4:00pmWNW 6 G 1063°83%11.34%
11/20 3:50pmW 5 G 1064°82%11.24%
11/20 3:40pmWNW 5 G 1364°81%11.15%
11/20 3:30pmWNW 5 G 964°79%11.06%
11/20 3:20pmW 5 G 1164°78%11.03%
11/20 3:10pmW 4 G 1065°76%10.97%
11/20 3:00pmWNW 4 G 1065°75%11.01%
11/20 2:50pmWNW 4 G 964°74%10.9%
11/20 2:40pmW 4 G 1065°72%10.86%
11/20 2:30pmW 4 G 866°69%10.94%
11/20 2:20pmWNW 5 G 1066°67%10.95%
11/20 2:10pmW 4 G 1066°66%10.92%
11/20 2:00pmWNW 5 G 1266°67%11.11%
11/20 1:50pmWNW 5 G 1166°67%11.06%
11/20 1:40pmWNW 5 G 1166°66%11.08%
11/20 1:30pmWNW 5 G 1166°65%11.11%
11/20 1:20pmWNW 5 G 1066°65%11.16%
11/20 1:10pmWNW 5 G 1266°66%11.19%
11/20 1:00pmWNW 7 G 1166°64%11.14%
11/20 12:50pmWNW 7 G 1266°63%11.17%
11/20 12:40pmWNW 5 G 1167°63%11.25%
11/20 12:30pmNW 7 G 1266°65%11.27%
11/20 12:20pmNW 5 G 1166°66%11.35%
11/20 12:10pmNW 7 G 1266°67%11.35%
11/20 12:00pmNW 7 G 1266°65%11.36%
11/20 11:50amNNW 5 G 1067°66%11.49%
11/20 11:40amNNW 6 G 1166°67%11.51%
11/20 11:30amNNW 5 G 1066°68%11.56%
11/20 11:20amNNW 6 G 1066°69%11.67%
11/20 11:10amWNW 5 G 965°69%11.71%
11/20 11:00amWNW 5 G 1166°68%11.81%
11/20 10:50amNNW 4 G 966°67%11.91%
11/20 10:40amNNW 4 G 766°68%12.06%
11/20 10:30amNNW 4 G 865°69%12.21%
11/20 10:20amNW 5 G 1065°69%12.39%
11/20 10:10amNW 4 G 865°70%12.54%
11/20 10:00amNW 3 G 765°71%12.65%
11/20 9:50amNW 4 G 764°72%12.77%
11/20 9:40amWNW 4 G 764°73%12.77%
11/20 9:30amNW 5 G 864°73%12.84%
11/20 9:20amWNW 4 G 864°74%12.91%
11/20 9:10amWNW 4 G 764°72%12.96%
11/20 9:00amNNE 3 G 663°66%13.09%
11/20 8:50amNE 3 G 662°67%13.24%
11/20 8:40amNE 4 G 661°69%13.35%
11/20 8:30amNNE 3 G 561°69%13.51%
11/20 8:20amNNE 3 G 561°69%13.72%
11/20 8:10amNNE 3 G 560°69%13.94%
11/20 8:00amNNE 3 G 559°68%14.1%
11/20 7:50amN 2 G 460°69%14.42%
11/20 7:40amN 2 G 459°70%14.68%
11/20 7:30amN 3 G 458°71%14.98%
11/20 7:20amN 3 G 557°72%15.25%
11/20 7:10amN 5 G 656°71%15.47%
11/20 7:00amN 5 G 655°72%15.66%
11/20 6:50amNNE 5 G 755°74%15.76%
11/20 6:40amNNE 5 G 655°75%15.72%
11/20 6:30amN 5 G 654°76%15.69%
11/20 6:20amN 5 G 754°76%15.64%
11/20 6:10amNNE 5 G 754°77%15.63%
11/20 6:00amNNE 6 G 754°77%15.64%
11/20 5:50amNNE 6 G 854°78%15.66%
11/20 5:40amN 6 G 755°80%15.67%
11/20 5:30amN 6 G 855°81%15.64%
11/20 5:20amNNE 6 G 755°82%15.61%
11/20 5:10amNNE 6 G 755°83%15.58%
11/20 5:00amNNE 6 G 855°84%15.52%